createdAt,value
2018-04-14T00:00:17.399Z,13.50
2018-04-14T00:02:44.902Z,13.50
2018-04-14T00:05:12.360Z,13.50
2018-04-14T00:07:39.822Z,13.50
2018-04-14T00:10:07.284Z,13.50
2018-04-14T00:12:34.782Z,13.50
2018-04-14T00:15:02.267Z,13.50
2018-04-14T00:17:29.747Z,13.50
2018-04-14T00:19:57.212Z,13.50
2018-04-14T00:22:24.664Z,13.50
2018-04-14T00:24:52.124Z,13.50
2018-04-14T00:27:19.580Z,13.50
2018-04-14T00:29:47.103Z,13.50
2018-04-14T00:32:15.347Z,13.50
2018-04-14T00:34:42.824Z,13.40
2018-04-14T00:37:10.317Z,13.50
2018-04-14T00:39:37.811Z,13.50
2018-04-14T00:42:05.228Z,13.40
2018-04-14T00:44:32.717Z,13.40
2018-04-14T00:47:00.180Z,13.50
2018-04-14T00:49:27.632Z,13.50
2018-04-14T00:51:55.092Z,13.50
2018-04-14T00:54:22.560Z,13.50
2018-04-14T00:56:50.038Z,13.50
2018-04-14T00:59:17.527Z,13.40
2018-04-14T01:01:44.984Z,13.50
2018-04-14T01:04:12.465Z,13.40
2018-04-14T01:06:39.920Z,13.50
2018-04-14T01:09:07.420Z,13.50
2018-04-14T01:11:34.899Z,13.50
2018-04-14T01:14:02.453Z,13.50
2018-04-14T01:16:30.026Z,13.40
2018-04-14T01:18:57.502Z,13.40
2018-04-14T01:21:24.982Z,13.40
2018-04-14T01:23:52.446Z,13.40
2018-04-14T01:26:19.930Z,13.30
2018-04-14T01:28:48.180Z,13.30
2018-04-14T01:31:15.649Z,13.30
2018-04-14T01:33:43.116Z,13.30
2018-04-14T01:36:10.605Z,13.20
2018-04-14T01:38:38.063Z,13.10
2018-04-14T01:41:05.545Z,13.10
2018-04-14T01:43:33.031Z,13.10
2018-04-14T01:46:00.584Z,13.10
2018-04-14T01:48:28.153Z,13.00
2018-04-14T01:50:55.727Z,13.00
2018-04-14T01:53:23.303Z,12.80
2018-04-14T01:55:50.870Z,12.80
2018-04-14T01:58:18.346Z,12.80
2018-04-14T02:00:45.902Z,12.70
2018-04-14T02:03:13.364Z,12.70
2018-04-14T02:05:40.961Z,12.60
2018-04-14T02:08:08.515Z,12.60
2018-04-14T02:10:35.980Z,12.60
2018-04-14T02:13:03.449Z,12.70
2018-04-14T02:15:30.900Z,12.70
2018-04-14T02:17:58.367Z,12.60
2018-04-14T02:20:25.866Z,12.70
2018-04-14T02:22:53.336Z,12.80
2018-04-14T02:25:20.923Z,12.80
2018-04-14T02:27:49.892Z,12.90
2018-04-14T02:30:17.359Z,12.90
2018-04-14T02:32:44.866Z,13.00
2018-04-14T02:35:12.335Z,13.00
2018-04-14T02:37:39.887Z,13.00
2018-04-14T02:40:07.350Z,12.90
2018-04-14T02:42:34.821Z,12.90
2018-04-14T02:45:02.310Z,12.90
2018-04-14T02:47:29.773Z,12.90
2018-04-14T02:49:57.245Z,12.90
2018-04-14T02:52:24.789Z,13.00
2018-04-14T02:54:52.276Z,13.00
2018-04-14T02:57:19.758Z,13.00
2018-04-14T02:59:47.221Z,13.10
2018-04-14T03:02:14.682Z,13.10
2018-04-14T03:04:42.144Z,13.10
2018-04-14T03:07:09.686Z,13.10
2018-04-14T03:09:37.890Z,13.10
2018-04-14T03:12:05.368Z,13.10
2018-04-14T03:14:32.815Z,13.10
2018-04-14T03:17:00.294Z,13.10
2018-04-14T03:19:27.806Z,13.20
2018-04-14T03:21:55.374Z,13.20
2018-04-14T03:24:22.838Z,13.20
2018-04-14T03:26:50.399Z,13.20
2018-04-14T03:29:17.872Z,13.20
2018-04-14T03:31:45.358Z,13.20
2018-04-14T03:34:12.832Z,13.10
2018-04-14T03:36:40.566Z,13.10
2018-04-14T03:39:08.019Z,13.10
2018-04-14T03:41:35.538Z,13.10
2018-04-14T03:44:02.990Z,13.10
2018-04-14T03:46:30.445Z,13.00
2018-04-14T03:48:57.936Z,13.00
2018-04-14T03:51:25.412Z,13.00
2018-04-14T03:53:52.898Z,12.90
2018-04-14T03:56:20.366Z,12.90
2018-04-14T03:58:47.912Z,12.90
2018-04-14T04:01:15.360Z,12.90
2018-04-14T04:03:42.866Z,12.80
2018-04-14T04:06:10.338Z,12.60
2018-04-14T04:08:38.006Z,12.70
2018-04-14T04:11:05.478Z,12.70
2018-04-14T04:13:32.958Z,12.70
2018-04-14T04:16:00.447Z,12.70
2018-04-14T04:18:39.806Z,12.60
2018-04-14T04:21:34.676Z,12.70
2018-04-14T04:24:14.034Z,12.70
2018-04-14T04:26:41.602Z,12.70
2018-04-14T04:29:09.177Z,12.70
2018-04-14T04:31:36.746Z,12.80
2018-04-14T04:34:04.301Z,12.80
2018-04-14T04:36:32.630Z,12.80
2018-04-14T04:39:00.096Z,12.80
2018-04-14T04:41:27.564Z,12.90
2018-04-14T04:43:55.016Z,12.90
2018-04-14T04:46:22.475Z,13.00
2018-04-14T04:48:49.981Z,13.10
2018-04-14T04:51:17.409Z,13.10
2018-04-14T04:53:44.892Z,13.20
2018-04-14T04:56:12.586Z,13.20
2018-04-14T04:58:40.136Z,13.20
2018-04-14T05:01:07.613Z,13.00
2018-04-14T05:03:35.884Z,12.90
2018-04-14T05:06:03.356Z,12.90
2018-04-14T05:08:30.832Z,12.80
2018-04-14T05:10:58.410Z,12.70
2018-04-14T05:13:25.872Z,12.80
2018-04-14T05:15:53.343Z,12.70
2018-04-14T05:18:20.920Z,12.70
2018-04-14T05:20:48.426Z,12.60
2018-04-14T05:23:16.662Z,12.50
2018-04-14T05:25:44.104Z,12.40
2018-04-14T05:28:11.586Z,12.40
2018-04-14T05:30:39.063Z,12.30
2018-04-14T05:33:06.566Z,12.40
2018-04-14T05:35:34.139Z,12.40
2018-04-14T05:38:01.710Z,12.40
2018-04-14T05:40:29.175Z,12.30
2018-04-14T05:42:56.767Z,12.50
2018-04-14T05:45:24.221Z,12.60
2018-04-14T05:47:51.768Z,12.60
2018-04-14T05:50:19.254Z,12.60
2018-04-14T05:52:46.722Z,12.60
2018-04-14T05:55:14.198Z,12.70
2018-04-14T05:57:41.682Z,12.70
2018-04-14T06:00:09.238Z,12.70
2018-04-14T06:02:36.795Z,12.70
2018-04-14T06:05:04.254Z,12.80
2018-04-14T06:07:31.722Z,12.70
2018-04-14T06:09:59.215Z,12.60
2018-04-14T06:12:26.771Z,12.60
2018-04-14T06:14:54.265Z,12.70
2018-04-14T06:17:21.715Z,12.70
2018-04-14T06:19:49.178Z,12.60
2018-04-14T06:22:16.726Z,12.70
2018-04-14T06:24:44.898Z,12.70
2018-04-14T06:27:12.522Z,12.70
2018-04-14T06:29:39.996Z,12.80
2018-04-14T06:32:07.459Z,12.80
2018-04-14T06:34:34.922Z,12.70
2018-04-14T06:37:02.377Z,12.70
2018-04-14T06:39:29.823Z,12.70
2018-04-14T06:41:57.298Z,12.60
2018-04-14T06:44:24.858Z,12.80
2018-04-14T06:46:52.295Z,12.80
2018-04-14T06:49:19.860Z,12.90
2018-04-14T06:51:47.413Z,12.80
2018-04-14T06:54:14.859Z,12.90
2018-04-14T06:56:42.328Z,12.90
2018-04-14T06:59:09.815Z,12.90
2018-04-14T07:01:37.269Z,12.90
2018-04-14T07:04:04.728Z,13.10
2018-04-14T07:06:32.202Z,13.20
2018-04-14T07:08:59.695Z,13.10
2018-04-14T07:11:27.178Z,13.30
2018-04-14T07:13:54.660Z,13.30
2018-04-14T07:16:22.113Z,13.30
2018-04-14T07:18:49.578Z,13.40
2018-04-14T07:21:17.044Z,13.20
2018-04-14T07:23:44.510Z,13.20
2018-04-14T07:26:12.002Z,13.20
2018-04-14T07:28:39.468Z,13.40
2018-04-14T07:31:06.920Z,13.50
2018-04-14T07:33:34.395Z,13.50
2018-04-14T07:36:01.871Z,13.40
2018-04-14T07:38:29.335Z,13.50
2018-04-14T07:40:56.827Z,13.60
2018-04-14T07:43:24.286Z,13.60
2018-04-14T07:45:51.756Z,13.50
2018-04-14T07:48:19.211Z,13.50
2018-04-14T07:50:46.660Z,13.40
2018-04-14T07:53:14.248Z,13.40
2018-04-14T07:55:41.722Z,13.40
2018-04-14T07:58:09.188Z,13.40
2018-04-14T08:00:36.654Z,13.60
2018-04-14T08:03:04.127Z,13.70
2018-04-14T08:05:31.591Z,14.00
2018-04-14T08:07:59.082Z,14.20
2018-04-14T08:10:26.535Z,14.20
2018-04-14T08:12:54.074Z,14.40
2018-04-14T08:15:21.580Z,14.70
2018-04-14T08:17:49.066Z,14.60
2018-04-14T08:20:16.531Z,14.60
2018-04-14T08:22:44.037Z,14.60
2018-04-14T08:25:12.268Z,14.60
2018-04-14T08:27:39.741Z,14.50
2018-04-14T08:30:07.271Z,14.60
2018-04-14T08:32:34.718Z,14.50
2018-04-14T08:35:02.191Z,14.60
2018-04-14T08:37:29.722Z,14.70
2018-04-14T08:39:57.104Z,14.60
2018-04-14T08:42:24.560Z,14.80
2018-04-14T08:44:52.008Z,14.90
2018-04-14T08:47:19.485Z,15.00
2018-04-14T08:49:46.934Z,15.20
2018-04-14T08:52:14.409Z,15.20
2018-04-14T08:54:41.932Z,15.30
2018-04-14T08:57:09.476Z,15.40
2018-04-14T08:59:36.982Z,15.40
2018-04-14T09:02:04.440Z,15.10
2018-04-14T09:04:31.988Z,15.00
2018-04-14T09:06:59.483Z,14.90
2018-04-14T09:09:27.028Z,14.90
2018-04-14T09:11:54.500Z,15.00
2018-04-14T09:14:21.956Z,15.10
2018-04-14T09:16:49.412Z,15.40
2018-04-14T09:19:16.931Z,15.50
2018-04-14T09:21:44.410Z,15.60
2018-04-14T09:24:11.872Z,15.30
2018-04-14T09:26:39.342Z,15.10
2018-04-14T09:29:06.800Z,15.00
2018-04-14T09:31:34.290Z,15.10
2018-04-14T09:34:01.738Z,15.20
2018-04-14T09:36:29.198Z,15.10
2018-04-14T09:38:56.668Z,15.10
2018-04-14T09:41:24.129Z,15.00
2018-04-14T09:43:51.572Z,15.00
2018-04-14T09:46:19.028Z,14.90
2018-04-14T09:48:47.276Z,15.20
2018-04-14T09:51:14.862Z,15.20
2018-04-14T09:53:42.419Z,15.40
2018-04-14T09:56:09.869Z,15.20
2018-04-14T09:58:37.316Z,15.40
2018-04-14T10:01:11.263Z,15.50
2018-04-14T10:03:38.707Z,15.50
2018-04-14T10:06:06.165Z,15.60
2018-04-14T10:08:33.699Z,15.50
2018-04-14T10:11:01.252Z,15.50
2018-04-14T10:13:28.734Z,15.40
2018-04-14T10:15:56.192Z,15.40
2018-04-14T10:18:23.641Z,15.50
2018-04-14T10:20:51.114Z,15.70
2018-04-14T10:23:18.586Z,15.90
2018-04-14T10:25:46.054Z,16.00
2018-04-14T10:28:13.536Z,16.10
2018-04-14T10:30:40.996Z,16.00
2018-04-14T10:33:08.488Z,16.10
2018-04-14T10:35:36.040Z,16.10
2018-04-14T10:38:03.561Z,16.10
2018-04-14T10:40:31.085Z,16.10
2018-04-14T10:42:58.545Z,16.40
2018-04-14T10:45:26.046Z,16.40
2018-04-14T10:47:53.609Z,16.60
2018-04-14T10:50:21.164Z,16.80
2018-04-14T10:52:48.636Z,17.00
2018-04-14T10:55:16.108Z,17.10
2018-04-14T10:57:43.665Z,16.90
2018-04-14T11:00:11.159Z,16.70
2018-04-14T11:02:38.616Z,16.60
2018-04-14T11:05:06.114Z,16.60
2018-04-14T11:07:33.660Z,16.50
2018-04-14T11:10:01.136Z,16.80
2018-04-14T11:12:28.580Z,16.80
2018-04-14T11:14:56.090Z,17.00
2018-04-14T11:17:23.640Z,17.20
2018-04-14T11:19:51.127Z,17.70
2018-04-14T11:22:18.594Z,18.10
2018-04-14T11:24:46.081Z,18.20
2018-04-14T11:27:13.532Z,18.10
2018-04-14T11:29:40.984Z,18.30
2018-04-14T11:32:08.623Z,18.10
2018-04-14T11:34:36.823Z,17.90
2018-04-14T11:37:04.296Z,17.90
2018-04-14T11:39:31.814Z,18.00
2018-04-14T11:41:59.278Z,18.90
2018-04-14T11:44:26.742Z,19.70
2018-04-14T11:46:54.207Z,19.60
2018-04-14T11:49:21.694Z,19.20
2018-04-14T11:51:49.132Z,19.30
2018-04-14T11:54:16.620Z,19.20
2018-04-14T11:56:45.601Z,19.60
2018-04-14T11:59:13.113Z,19.60
2018-04-14T12:01:40.568Z,19.50
2018-04-14T12:04:08.025Z,19.70
2018-04-14T12:06:35.486Z,19.30
2018-04-14T12:09:02.944Z,19.00
2018-04-14T12:11:30.414Z,19.00
2018-04-14T12:13:57.861Z,18.80
2018-04-14T12:16:25.372Z,18.80
2018-04-14T12:18:52.824Z,18.90
2018-04-14T12:21:20.290Z,19.00
2018-04-14T12:23:47.791Z,19.50
2018-04-14T12:26:15.258Z,19.80
2018-04-14T12:28:42.747Z,20.00
2018-04-14T12:31:10.261Z,20.50
2018-04-14T12:33:37.708Z,21.10
2018-04-14T12:36:05.943Z,21.30
2018-04-14T12:38:33.411Z,21.30
2018-04-14T12:41:00.859Z,21.10
2018-04-14T12:43:28.318Z,21.10
2018-04-14T12:45:55.803Z,21.20
2018-04-14T12:48:23.252Z,21.10
2018-04-14T12:50:50.721Z,21.40
2018-04-14T12:53:18.182Z,22.20
2018-04-14T12:55:46.404Z,23.50
2018-04-14T12:58:13.878Z,23.50
2018-04-14T13:00:41.334Z,24.70
2018-04-14T13:03:08.819Z,25.40
2018-04-14T13:05:36.282Z,25.40
2018-04-14T13:08:03.772Z,25.20
2018-04-14T13:10:31.246Z,25.00
2018-04-14T13:12:58.727Z,25.90
2018-04-14T13:15:26.203Z,26.10
2018-04-14T13:17:53.764Z,26.40
2018-04-14T13:20:21.234Z,26.00
2018-04-14T13:22:48.746Z,26.00
2018-04-14T13:25:16.278Z,26.00
2018-04-14T13:27:43.839Z,25.70
2018-04-14T13:30:11.312Z,26.60
2018-04-14T13:32:38.874Z,27.70
2018-04-14T13:35:06.346Z,28.20
2018-04-14T13:37:33.808Z,27.70
2018-04-14T13:40:01.270Z,27.60
2018-04-14T13:42:28.749Z,27.80
2018-04-14T13:44:56.196Z,28.40
2018-04-14T13:47:23.652Z,28.20
2018-04-14T13:49:51.108Z,28.00
2018-04-14T13:52:18.555Z,27.40
2018-04-14T13:54:46.802Z,28.30
2018-04-14T13:57:14.248Z,28.30
2018-04-14T13:59:41.726Z,28.60
2018-04-14T14:02:09.185Z,29.10
2018-04-14T14:04:36.660Z,29.00
2018-04-14T14:07:04.150Z,29.40
2018-04-14T14:09:31.595Z,30.40
2018-04-14T14:11:59.052Z,31.30
2018-04-14T14:14:26.515Z,31.70
2018-04-14T14:16:55.791Z,33.00
2018-04-14T14:19:23.252Z,33.00
2018-04-14T14:21:50.813Z,33.30
2018-04-14T14:24:18.382Z,32.80
2018-04-14T14:26:45.823Z,31.70
2018-04-14T14:29:13.291Z,30.90
2018-04-14T14:31:40.762Z,31.70
2018-04-14T14:34:08.244Z,32.20
2018-04-14T14:36:35.728Z,32.90
2018-04-14T14:39:03.187Z,33.20
2018-04-14T14:41:30.652Z,32.90
2018-04-14T14:43:58.120Z,32.50
2018-04-14T14:46:25.572Z,33.20
2018-04-14T14:48:53.040Z,33.20
2018-04-14T14:51:20.507Z,34.00
2018-04-14T14:53:47.979Z,34.30
2018-04-14T14:56:15.449Z,34.70
2018-04-14T14:58:42.914Z,34.80
2018-04-14T15:01:11.139Z,35.10
2018-04-14T15:03:38.605Z,35.10
2018-04-14T15:06:06.100Z,35.10
2018-04-14T15:08:35.147Z,35.50
2018-04-14T15:11:03.390Z,35.40
2018-04-14T15:13:30.939Z,35.40
2018-04-14T15:15:58.392Z,35.60
2018-04-14T15:18:25.847Z,35.70
2018-04-14T15:20:53.314Z,35.80
2018-04-14T15:23:20.771Z,35.90
2018-04-14T15:25:48.979Z,35.80
2018-04-14T15:28:16.467Z,35.80
2018-04-14T15:30:43.942Z,35.60
2018-04-14T15:33:11.385Z,35.30
2018-04-14T15:35:38.951Z,34.80
2018-04-14T15:38:06.408Z,34.60
2018-04-14T15:40:34.652Z,34.60
2018-04-14T15:43:02.175Z,34.60
2018-04-14T15:45:30.400Z,33.80
2018-04-14T15:47:57.937Z,33.80
2018-04-14T15:50:25.399Z,33.30
2018-04-14T15:52:52.858Z,32.90
2018-04-14T15:55:21.082Z,32.50
2018-04-14T15:57:48.582Z,32.40
2018-04-14T16:00:16.158Z,32.60
2018-04-14T16:02:43.670Z,32.60
2018-04-14T16:05:11.922Z,31.60
2018-04-14T16:07:39.394Z,31.60
2018-04-14T16:10:06.387Z,30.60
2018-04-14T16:12:33.391Z,29.50
2018-04-14T16:15:00.478Z,28.50
2018-04-14T16:17:27.490Z,27.70
2018-04-14T16:19:54.510Z,26.70
2018-04-14T16:22:22.280Z,25.50
2018-04-14T16:24:50.523Z,25.30
2018-04-14T16:27:18.011Z,25.30
2018-04-14T16:29:45.572Z,25.20
2018-04-14T16:32:12.590Z,25.40
2018-04-14T16:34:39.618Z,25.60
2018-04-14T16:37:06.643Z,26.00
2018-04-14T16:39:33.736Z,26.00
2018-04-14T16:42:00.751Z,26.20
2018-04-14T16:44:27.772Z,26.60
2018-04-14T16:46:55.649Z,26.80
2018-04-14T16:49:22.765Z,26.70
2018-04-14T16:51:49.735Z,26.80
2018-04-14T16:54:16.795Z,26.50
2018-04-14T16:56:43.877Z,26.20
2018-04-14T16:59:10.889Z,25.80
2018-04-14T17:01:38.002Z,25.30
2018-04-14T17:04:06.224Z,24.60
2018-04-14T17:06:33.736Z,24.50
2018-04-14T17:09:01.211Z,24.10
2018-04-14T17:11:28.656Z,23.90
2018-04-14T17:13:56.143Z,23.60
2018-04-14T17:16:23.161Z,23.30
2018-04-14T17:18:50.181Z,23.00
2018-04-14T17:21:17.194Z,22.70
2018-04-14T17:23:44.187Z,22.60
2018-04-14T17:26:11.211Z,22.40
2018-04-14T17:28:38.219Z,22.30
2018-04-14T17:31:05.222Z,22.20
2018-04-14T17:33:32.235Z,22.20
2018-04-14T17:35:59.247Z,22.00
2018-04-14T17:38:26.252Z,21.90
2018-04-14T17:40:53.262Z,21.70
2018-04-14T17:43:20.282Z,21.60
2018-04-14T17:45:48.132Z,21.20
2018-04-14T17:48:15.308Z,21.20
2018-04-14T17:50:42.363Z,21.10
2018-04-14T17:53:09.372Z,20.90
2018-04-14T17:55:36.482Z,20.80
2018-04-14T17:58:03.546Z,20.70
2018-04-14T18:00:30.997Z,20.60
2018-04-14T18:02:58.468Z,20.30
2018-04-14T18:05:25.911Z,20.10
2018-04-14T18:07:53.389Z,20.00
2018-04-14T18:10:20.844Z,19.90
2018-04-14T18:12:48.315Z,19.80
2018-04-14T18:15:15.814Z,19.60
2018-04-14T18:17:43.283Z,19.50
2018-04-14T18:20:10.743Z,19.40
2018-04-14T18:22:38.198Z,19.30
2018-04-14T18:25:05.663Z,19.20
2018-04-14T18:27:33.109Z,19.00
2018-04-14T18:30:00.655Z,19.00
2018-04-14T18:32:28.905Z,18.70
2018-04-14T18:34:56.368Z,18.70
2018-04-14T18:37:23.820Z,18.60
2018-04-14T18:39:51.282Z,18.50
2018-04-14T18:42:18.738Z,18.50
2018-04-14T18:44:46.988Z,18.30
2018-04-14T18:47:14.458Z,18.20
2018-04-14T18:49:41.968Z,18.20
2018-04-14T18:52:09.493Z,18.10
2018-04-14T18:54:36.955Z,18.10
2018-04-14T18:57:04.417Z,18.00
2018-04-14T18:59:31.911Z,17.90
2018-04-14T19:01:59.470Z,17.80
2018-04-14T19:07:17.550Z,17.70
2018-04-14T19:09:45.009Z,17.50
2018-04-14T19:12:12.513Z,17.40
2018-04-14T19:14:39.983Z,17.30
2018-04-14T19:17:07.433Z,17.30
2018-04-14T19:19:35.003Z,17.40
2018-04-14T19:22:02.470Z,17.30
2018-04-14T19:24:30.056Z,17.30
2018-04-14T19:26:57.511Z,17.20
2018-04-14T19:29:25.090Z,17.20
2018-04-14T19:31:52.571Z,17.10
2018-04-14T19:34:20.143Z,17.10
2018-04-14T19:36:47.706Z,17.10
2018-04-14T19:39:15.374Z,17.10
2018-04-14T19:41:42.831Z,17.00
2018-04-14T19:44:10.304Z,16.90
2018-04-14T19:46:37.770Z,16.90
2018-04-14T19:49:06.055Z,16.90
2018-04-14T19:51:33.508Z,16.90
2018-04-14T19:54:01.015Z,16.80
2018-04-14T19:56:28.576Z,16.80
2018-04-14T19:58:56.044Z,16.80
2018-04-14T20:01:23.517Z,16.60
2018-04-14T20:03:50.968Z,16.50
2018-04-14T20:06:18.435Z,16.50
2018-04-14T20:08:45.924Z,16.40
2018-04-14T20:11:13.405Z,16.40
2018-04-14T20:13:40.879Z,16.40
2018-04-14T20:16:08.358Z,16.40
2018-04-14T20:18:36.571Z,16.30
2018-04-14T20:21:04.088Z,16.30
2018-04-14T20:23:31.575Z,16.40
2018-04-14T20:25:59.142Z,16.30
2018-04-14T20:28:26.604Z,16.20
2018-04-14T20:30:54.060Z,16.00
2018-04-14T20:33:21.561Z,16.00
2018-04-14T20:35:49.012Z,15.90
2018-04-14T20:38:16.489Z,15.90
2018-04-14T20:40:44.062Z,16.00
2018-04-14T20:43:11.539Z,15.80
2018-04-14T20:45:39.007Z,15.70
2018-04-14T20:48:06.484Z,15.80
2018-04-14T20:50:34.028Z,15.70
2018-04-14T20:53:01.503Z,15.60
2018-04-14T20:55:28.966Z,15.60
2018-04-14T20:57:56.439Z,15.50
2018-04-14T21:00:23.917Z,15.50
2018-04-14T21:02:51.367Z,15.50
2018-04-14T21:05:18.867Z,15.30
2018-04-14T21:07:46.347Z,15.20
2018-04-14T21:10:14.579Z,15.10
2018-04-14T21:12:42.095Z,15.10
2018-04-14T21:15:09.643Z,14.90
2018-04-14T21:17:37.117Z,15.00
2018-04-14T21:20:04.608Z,15.10
2018-04-14T21:22:32.065Z,15.20
2018-04-14T21:25:00.261Z,15.10
2018-04-14T21:27:27.729Z,15.00
2018-04-14T21:29:55.188Z,14.90
2018-04-14T21:32:22.658Z,15.00
2018-04-14T21:34:50.105Z,15.00
2018-04-14T21:37:17.586Z,14.80
2018-04-14T21:39:45.051Z,14.80
2018-04-14T21:42:12.515Z,14.80
2018-04-14T21:44:40.015Z,14.80
2018-04-14T21:47:07.472Z,14.90
2018-04-14T21:49:34.923Z,14.90
2018-04-14T21:52:02.421Z,14.90
2018-04-14T21:54:29.900Z,14.90
2018-04-14T21:56:57.359Z,14.80
2018-04-14T21:59:24.846Z,14.70
2018-04-14T22:01:52.329Z,14.80
2018-04-14T22:04:19.776Z,14.80
2018-04-14T22:06:47.236Z,14.70
2018-04-14T22:09:14.732Z,14.90
2018-04-14T22:11:42.185Z,14.90
2018-04-14T22:14:09.683Z,15.00
2018-04-14T22:16:37.159Z,15.00
2018-04-14T22:19:04.618Z,14.80
2018-04-14T22:21:32.080Z,14.80
2018-04-14T22:23:59.550Z,14.80
2018-04-14T22:26:27.071Z,14.80
2018-04-14T22:28:54.529Z,14.90
2018-04-14T22:31:22.011Z,14.80
2018-04-14T22:33:49.476Z,14.70
2018-04-14T22:36:16.955Z,14.60
2018-04-14T22:38:44.523Z,14.60
2018-04-14T22:41:12.095Z,14.50
2018-04-14T22:43:39.567Z,14.50
2018-04-14T22:46:07.124Z,14.50
2018-04-14T22:48:34.595Z,14.50
2018-04-14T22:51:02.059Z,14.40
2018-04-14T22:53:29.651Z,14.20
2018-04-14T22:55:57.126Z,14.10
2018-04-14T22:58:24.705Z,14.10
2018-04-14T23:00:52.175Z,14.10
2018-04-14T23:03:19.755Z,14.00
2018-04-14T23:05:47.234Z,13.90
2018-04-14T23:08:14.784Z,14.00
2018-04-14T23:10:42.255Z,14.00
2018-04-14T23:13:09.742Z,13.90
2018-04-14T23:15:37.215Z,13.90
2018-04-14T23:18:04.768Z,13.90
2018-04-14T23:20:32.240Z,13.90
2018-04-14T23:22:59.695Z,13.80
2018-04-14T23:25:27.183Z,13.70
2018-04-14T23:27:54.656Z,13.70
2018-04-14T23:30:22.128Z,13.60
2018-04-14T23:32:49.596Z,13.60
2018-04-14T23:35:17.063Z,13.60
2018-04-14T23:37:44.536Z,13.60
2018-04-14T23:40:12.031Z,13.70
2018-04-14T23:42:39.594Z,13.60
2018-04-14T23:45:07.081Z,13.60
2018-04-14T23:47:35.327Z,13.70
2018-04-14T23:50:02.830Z,13.60
2018-04-14T23:52:30.384Z,13.70
2018-04-14T23:54:57.848Z,13.60
2018-04-14T23:57:25.322Z,13.70
2018-04-14T23:59:52.787Z,13.70
